createdAt,value
2022-12-18T00:01:28.662Z,-3.18
2022-12-18T00:03:56.048Z,-3.33
2022-12-18T00:06:26.933Z,-3.40
2022-12-18T00:08:53.319Z,-3.21
2022-12-18T00:11:21.049Z,-2.94
2022-12-18T00:13:47.739Z,-2.81
2022-12-18T00:16:17.531Z,-3.09
2022-12-18T00:18:43.972Z,-3.00
2022-12-18T00:21:11.810Z,-3.17
2022-12-18T00:23:39.431Z,-3.11
2022-12-18T00:26:07.243Z,-3.33
2022-12-18T00:28:33.915Z,-3.49
2022-12-18T00:31:08.107Z,-3.12
2022-12-18T00:33:35.415Z,-3.14
2022-12-18T00:36:10.223Z,-2.94
2022-12-18T00:38:36.635Z,-2.83
2022-12-18T00:41:03.002Z,-2.87
2022-12-18T00:43:29.401Z,-2.88
2022-12-18T00:45:55.845Z,-3.22
2022-12-18T00:48:22.337Z,-3.11
2022-12-18T00:50:49.650Z,-3.19
2022-12-18T00:53:16.107Z,-2.92
2022-12-18T00:55:42.856Z,-3.17
2022-12-18T00:58:10.067Z,-3.10
2022-12-18T01:00:36.757Z,-3.09
2022-12-18T01:03:03.550Z,-2.91
2022-12-18T01:05:30.123Z,-3.20
2022-12-18T01:07:57.206Z,-2.81
2022-12-18T01:10:24.013Z,-2.91
2022-12-18T01:12:50.796Z,-2.93
2022-12-18T01:15:17.966Z,-2.99
2022-12-18T01:17:44.375Z,-3.09
2022-12-18T01:20:11.660Z,-3.00
2022-12-18T01:22:38.612Z,-3.20
2022-12-18T01:25:07.689Z,-3.06
2022-12-18T01:27:34.395Z,-2.94
2022-12-18T01:30:03.133Z,-2.88
2022-12-18T01:32:32.830Z,-2.82
2022-12-18T01:34:59.196Z,-2.75
2022-12-18T01:37:27.173Z,-2.73
2022-12-18T01:39:55.212Z,-2.74
2022-12-18T01:42:21.606Z,-2.74
2022-12-18T01:44:57.562Z,-2.78
2022-12-18T01:47:30.732Z,-3.07
2022-12-18T01:49:58.086Z,-2.90
2022-12-18T01:52:25.987Z,-2.87
2022-12-18T01:54:52.682Z,-3.03
2022-12-18T01:57:19.324Z,-2.96
2022-12-18T01:59:48.836Z,-2.89
2022-12-18T02:02:16.635Z,-3.60
2022-12-18T02:04:49.390Z,-3.21
2022-12-18T02:07:25.902Z,-3.04
2022-12-18T02:09:59.826Z,-2.96
2022-12-18T02:12:30.182Z,-2.92
2022-12-18T02:14:56.570Z,-2.93
2022-12-18T02:17:25.652Z,-3.37
2022-12-18T02:20:10.436Z,-3.12
2022-12-18T02:22:40.124Z,-3.01
2022-12-18T02:25:18.917Z,-2.99
2022-12-18T02:27:46.971Z,-3.01
2022-12-18T02:30:14.596Z,-2.97
2022-12-18T02:32:43.409Z,-2.94
2022-12-18T02:35:14.531Z,-2.98
2022-12-18T02:37:43.286Z,-2.99
2022-12-18T02:40:11.808Z,-2.94
2022-12-18T02:42:38.375Z,-2.92
2022-12-18T02:45:07.858Z,-2.87
2022-12-18T02:47:38.881Z,-2.97
2022-12-18T02:50:10.807Z,-2.91
2022-12-18T02:52:37.827Z,-2.94
2022-12-18T02:55:19.211Z,-3.01
2022-12-18T02:58:04.231Z,-3.00
2022-12-18T03:00:40.253Z,-3.05
2022-12-18T03:03:12.505Z,-3.06
2022-12-18T03:05:59.636Z,-3.10
2022-12-18T03:08:30.165Z,-3.04
2022-12-18T03:10:58.823Z,-3.05
2022-12-18T03:13:32.526Z,-3.09
2022-12-18T03:15:59.954Z,-3.12
2022-12-18T03:18:38.578Z,-3.17
2022-12-18T03:21:06.297Z,-3.15
2022-12-18T03:23:40.613Z,-3.17
2022-12-18T03:26:10.349Z,-3.14
2022-12-18T03:28:40.693Z,-3.24
2022-12-18T03:31:10.468Z,-3.17
2022-12-18T03:33:43.316Z,-3.30
2022-12-18T03:36:09.799Z,-3.22
2022-12-18T03:38:36.354Z,-3.24
2022-12-18T03:41:12.317Z,-3.24
2022-12-18T03:44:04.882Z,-3.17
2022-12-18T03:46:34.626Z,-3.22
2022-12-18T03:49:09.604Z,-3.23
2022-12-18T03:51:36.322Z,-3.18
2022-12-18T03:54:04.916Z,-3.30
2022-12-18T03:56:43.052Z,-3.32
2022-12-18T03:59:12.383Z,-3.26
2022-12-18T04:01:41.781Z,-3.25
2022-12-18T04:04:11.352Z,-3.29
2022-12-18T04:06:39.643Z,-3.28
2022-12-18T04:09:07.582Z,-3.27
2022-12-18T04:11:38.443Z,-3.34
2022-12-18T04:14:07.397Z,-3.35
2022-12-18T04:16:34.625Z,-3.35
2022-12-18T04:19:03.722Z,-3.36
2022-12-18T04:21:35.635Z,-3.34
2022-12-18T04:24:02.057Z,-3.33
2022-12-18T04:26:29.221Z,-3.35
2022-12-18T04:29:15.329Z,-3.33
2022-12-18T04:31:42.474Z,-3.39
2022-12-18T04:34:09.705Z,-3.44
2022-12-18T04:36:42.164Z,-3.73
2022-12-18T04:39:08.689Z,-3.62
2022-12-18T04:41:35.134Z,-3.83
2022-12-18T04:44:02.231Z,-3.61
2022-12-18T04:46:28.667Z,-3.73
2022-12-18T04:48:55.118Z,-3.72
2022-12-18T04:51:26.388Z,-3.84
2022-12-18T04:53:53.562Z,-3.64
2022-12-18T04:56:20.254Z,-3.67
2022-12-18T04:58:46.772Z,-3.77
2022-12-18T05:01:14.221Z,-3.71
2022-12-18T05:03:41.059Z,-3.69
2022-12-18T05:06:08.143Z,-3.93
2022-12-18T05:08:34.869Z,-3.79
2022-12-18T05:11:05.553Z,-3.68
2022-12-18T05:13:32.364Z,-3.93
2022-12-18T05:15:58.795Z,-3.85
2022-12-18T05:18:25.808Z,-3.76
2022-12-18T05:20:52.848Z,-3.87
2022-12-18T05:23:19.575Z,-3.67
2022-12-18T05:25:53.986Z,-3.73
2022-12-18T05:28:20.850Z,-3.67
2022-12-18T05:30:51.187Z,-3.75
2022-12-18T05:33:18.139Z,-3.65
2022-12-18T05:35:44.953Z,-3.62
2022-12-18T05:38:11.635Z,-3.74
2022-12-18T05:40:38.029Z,-3.67
2022-12-18T05:43:04.385Z,-3.59
2022-12-18T05:45:30.725Z,-3.67
2022-12-18T05:47:57.091Z,-3.81
2022-12-18T05:50:23.880Z,-3.91
2022-12-18T05:52:50.571Z,-3.74
2022-12-18T05:55:16.965Z,-3.72
2022-12-18T05:57:43.324Z,-3.80
2022-12-18T06:00:10.045Z,-3.96
2022-12-18T06:02:38.630Z,-3.83
2022-12-18T06:05:05.261Z,-3.75
2022-12-18T06:07:31.621Z,-3.66
2022-12-18T06:09:57.973Z,-4.19
2022-12-18T06:12:24.343Z,-4.01
2022-12-18T06:14:50.683Z,-3.95
2022-12-18T06:17:17.019Z,-4.03
2022-12-18T06:19:43.401Z,-3.77
2022-12-18T06:22:09.762Z,-4.22
2022-12-18T06:24:36.182Z,-3.99
2022-12-18T06:27:03.259Z,-3.86
2022-12-18T06:29:29.604Z,-4.17
2022-12-18T06:31:56.039Z,-4.31
2022-12-18T06:34:22.432Z,-4.53
2022-12-18T06:36:48.804Z,-4.53
2022-12-18T06:39:15.219Z,-4.22
2022-12-18T06:41:41.620Z,-4.29
2022-12-18T06:44:07.956Z,-4.47
2022-12-18T06:46:34.319Z,-4.38
2022-12-18T06:49:00.696Z,-4.51
2022-12-18T06:51:27.131Z,-4.35
2022-12-18T06:53:53.505Z,-4.33
2022-12-18T06:56:20.048Z,-4.34
2022-12-18T06:58:46.482Z,-4.57
2022-12-18T07:01:13.667Z,-4.60
2022-12-18T07:03:43.998Z,-4.51
2022-12-18T07:06:15.835Z,-4.26
2022-12-18T07:08:42.274Z,-4.25
2022-12-18T07:11:08.672Z,-4.27
2022-12-18T07:13:35.029Z,-4.18
2022-12-18T07:16:10.898Z,-4.31
2022-12-18T07:18:41.583Z,-4.31
2022-12-18T07:21:12.536Z,-4.36
2022-12-18T07:23:39.294Z,-4.08
2022-12-18T07:26:07.647Z,-4.24
2022-12-18T07:28:34.432Z,-4.28
2022-12-18T07:31:04.791Z,-4.25
2022-12-18T07:33:31.165Z,-4.15
2022-12-18T07:35:59.933Z,-4.05
2022-12-18T07:38:27.219Z,-4.06
2022-12-18T07:40:53.867Z,-4.04
2022-12-18T07:43:20.270Z,-4.29
2022-12-18T07:45:49.881Z,-4.25
2022-12-18T07:48:16.272Z,-4.06
2022-12-18T07:50:42.652Z,-4.04
2022-12-18T07:53:09.051Z,-4.07
2022-12-18T07:55:59.896Z,-4.11
2022-12-18T07:58:21.772Z,-4.16
2022-12-18T08:00:48.225Z,-4.18
2022-12-18T08:03:14.631Z,-4.18
2022-12-18T08:05:40.991Z,-4.12
2022-12-18T08:08:07.394Z,-4.09
2022-12-18T08:10:33.784Z,-4.12
2022-12-18T08:13:04.654Z,-4.04
2022-12-18T08:15:31.381Z,-4.07
2022-12-18T08:17:57.998Z,-3.72
2022-12-18T08:20:24.381Z,-3.88
2022-12-18T08:22:50.855Z,-3.79
2022-12-18T08:25:17.246Z,-3.92
2022-12-18T08:27:43.615Z,-3.93
2022-12-18T08:30:10.499Z,-3.76
2022-12-18T08:32:37.376Z,-3.62
2022-12-18T08:35:04.187Z,-3.79
2022-12-18T08:37:30.543Z,-3.72
2022-12-18T08:39:56.935Z,-3.54
2022-12-18T08:42:41.936Z,-3.57
2022-12-18T08:45:08.701Z,-3.71
2022-12-18T08:47:35.108Z,-3.75
2022-12-18T08:50:01.740Z,-3.45
2022-12-18T08:52:29.162Z,-3.50
2022-12-18T08:54:55.531Z,-3.47
2022-12-18T08:57:21.900Z,-3.41
2022-12-18T08:59:49.241Z,-3.42
2022-12-18T09:02:15.750Z,-3.33
2022-12-18T09:04:42.292Z,-3.34
2022-12-18T09:07:08.666Z,-3.33
2022-12-18T09:09:35.038Z,-3.37
2022-12-18T09:12:01.430Z,-3.34
2022-12-18T09:14:27.791Z,-3.35
2022-12-18T09:16:54.251Z,-3.33
2022-12-18T09:19:20.625Z,-3.28
2022-12-18T09:21:48.484Z,-2.97
2022-12-18T09:24:15.710Z,-3.18
2022-12-18T09:26:42.626Z,-3.17
2022-12-18T09:29:11.379Z,-3.10
2022-12-18T09:31:39.053Z,-3.06
2022-12-18T09:34:07.212Z,-2.98
2022-12-18T09:36:33.798Z,-2.94
2022-12-18T09:39:03.721Z,-2.93
2022-12-18T09:41:32.727Z,-2.88
2022-12-18T09:44:10.182Z,-2.86
2022-12-18T09:46:39.367Z,-2.77
2022-12-18T09:49:08.376Z,-2.73
2022-12-18T09:51:39.607Z,-2.67
2022-12-18T09:54:08.331Z,-2.64
2022-12-18T09:56:40.241Z,-2.59
2022-12-18T09:59:06.710Z,-2.61
2022-12-18T10:01:43.231Z,-2.58
2022-12-18T10:04:10.855Z,-2.51
2022-12-18T10:06:42.581Z,-2.44
2022-12-18T10:09:11.912Z,-2.44
2022-12-18T10:11:57.304Z,-2.40
2022-12-18T10:14:32.911Z,-2.41
2022-12-18T10:17:11.628Z,-2.32
2022-12-18T10:19:41.619Z,-2.29
2022-12-18T10:22:17.035Z,-2.30
2022-12-18T10:24:50.007Z,-2.21
2022-12-18T10:27:17.906Z,-2.21
2022-12-18T10:29:45.289Z,-2.18
2022-12-18T10:32:19.885Z,-2.13
2022-12-18T10:34:54.090Z,-2.07
2022-12-18T10:37:26.212Z,-2.06
2022-12-18T10:40:09.811Z,-1.99
2022-12-18T10:42:36.182Z,-2.03
2022-12-18T10:45:05.034Z,-1.93
2022-12-18T10:47:31.484Z,-1.89
2022-12-18T10:49:57.930Z,-1.89
2022-12-18T10:52:26.110Z,-1.88
2022-12-18T10:54:54.113Z,-1.85
2022-12-18T10:57:32.670Z,-1.83
2022-12-18T11:00:02.311Z,-1.73
2022-12-18T11:02:34.367Z,-1.73
2022-12-18T11:05:01.445Z,-1.69
2022-12-18T11:07:47.573Z,-1.63
2022-12-18T11:10:17.088Z,-1.64
2022-12-18T11:12:43.688Z,-1.55
2022-12-18T11:15:24.752Z,-1.54
2022-12-18T11:17:52.207Z,-1.50
2022-12-18T11:20:36.016Z,-1.48
2022-12-18T11:23:11.600Z,-1.41
2022-12-18T11:25:38.025Z,-1.42
2022-12-18T11:28:04.532Z,-1.38
2022-12-18T11:30:32.769Z,-1.36
2022-12-18T11:33:10.474Z,-1.31
2022-12-18T11:35:51.894Z,-1.30
2022-12-18T11:38:21.443Z,-1.28
2022-12-18T11:40:51.307Z,-1.27
2022-12-18T11:43:32.893Z,-1.26
2022-12-18T11:46:20.017Z,-1.25
2022-12-18T11:49:02.107Z,-1.25
2022-12-18T11:51:33.078Z,-1.23
2022-12-18T11:53:59.617Z,-1.19
2022-12-18T11:56:35.926Z,-1.18
2022-12-18T11:59:17.711Z,-1.16
2022-12-18T12:01:51.840Z,-1.18
2022-12-18T12:04:30.787Z,-1.18
2022-12-18T12:07:03.306Z,-1.13
2022-12-18T12:09:45.278Z,-1.13
2022-12-18T12:12:22.344Z,-1.08
2022-12-18T12:14:50.093Z,-1.10
2022-12-18T12:17:31.299Z,-1.09
2022-12-18T12:19:58.319Z,-1.10
2022-12-18T12:22:34.336Z,-1.00
2022-12-18T12:25:14.974Z,-1.04
2022-12-18T12:27:53.911Z,-1.00
2022-12-18T12:30:32.710Z,-1.09
2022-12-18T12:33:17.498Z,-1.09
2022-12-18T12:35:46.931Z,-1.01
2022-12-18T12:38:13.403Z,-1.07
2022-12-18T12:40:58.568Z,-1.01
2022-12-18T12:43:33.250Z,-1.06
2022-12-18T12:46:02.678Z,-1.04
2022-12-18T12:48:29.084Z,-1.11
2022-12-18T12:50:56.096Z,-1.05
2022-12-18T12:53:26.130Z,-1.10
2022-12-18T12:55:53.308Z,-1.11
2022-12-18T12:58:22.812Z,-1.04
2022-12-18T13:01:00.648Z,-1.09
2022-12-18T13:03:46.798Z,-1.11
2022-12-18T13:06:33.787Z,-1.11
2022-12-18T13:09:01.197Z,-1.05
2022-12-18T13:11:57.833Z,-1.12
2022-12-18T13:14:28.667Z,-1.04
2022-12-18T13:17:15.588Z,-1.01
2022-12-18T13:19:42.257Z,-1.08
2022-12-18T13:22:21.913Z,-1.08
2022-12-18T13:24:48.383Z,-1.00
2022-12-18T13:27:34.586Z,-1.06
2022-12-18T13:30:00.997Z,-1.03
2022-12-18T13:32:27.685Z,-1.02
2022-12-18T13:35:13.249Z,-1.05
2022-12-18T13:37:59.923Z,-1.03
2022-12-18T13:40:42.186Z,-1.03
2022-12-18T13:43:28.828Z,-1.01
2022-12-18T13:46:06.642Z,-0.78
2022-12-18T13:48:34.934Z,-1.02
2022-12-18T13:51:09.848Z,-0.76
2022-12-18T13:53:50.595Z,-0.91
2022-12-18T13:56:23.376Z,-0.93
2022-12-18T13:59:09.173Z,-0.98
2022-12-18T14:01:35.699Z,-0.79
2022-12-18T14:04:12.513Z,-0.98
2022-12-18T14:06:39.203Z,-0.91
2022-12-18T14:09:06.122Z,-0.83
2022-12-18T14:11:35.963Z,-1.10
2022-12-18T14:14:02.549Z,-1.10
2022-12-18T14:16:29.291Z,-1.11
2022-12-18T14:19:01.940Z,-1.13
2022-12-18T14:21:35.996Z,-1.09
2022-12-18T14:24:15.120Z,-1.20
2022-12-18T14:26:44.025Z,-1.12
2022-12-18T14:29:27.273Z,-1.13
2022-12-18T14:32:17.362Z,-1.18
2022-12-18T14:34:45.394Z,-1.17
2022-12-18T14:37:12.831Z,-1.11
2022-12-18T14:39:39.767Z,-1.17
2022-12-18T14:42:06.155Z,-0.93
2022-12-18T14:44:44.145Z,-1.09
2022-12-18T14:47:18.456Z,-1.19
2022-12-18T14:49:44.995Z,-1.05
2022-12-18T14:52:23.658Z,-1.00
2022-12-18T14:54:50.094Z,-1.15
2022-12-18T14:57:22.802Z,-1.01
2022-12-18T14:59:49.232Z,-1.14
2022-12-18T15:02:24.177Z,-1.01
2022-12-18T15:05:01.384Z,-1.14
2022-12-18T15:07:27.734Z,-0.89
2022-12-18T15:10:09.394Z,-1.12
2022-12-18T15:12:37.207Z,-0.93
2022-12-18T15:15:04.867Z,-1.01
2022-12-18T15:17:31.996Z,-1.12
2022-12-18T15:20:03.256Z,-1.04
2022-12-18T15:22:31.580Z,-1.17
2022-12-18T15:24:59.013Z,-0.99
2022-12-18T15:27:25.342Z,-1.11
2022-12-18T15:30:23.882Z,-1.08
2022-12-18T15:32:50.835Z,-1.13
2022-12-18T15:35:26.569Z,-1.16
2022-12-18T15:37:53.311Z,-1.10
2022-12-18T15:40:21.241Z,-1.09
2022-12-18T15:43:06.949Z,-1.04
2022-12-18T15:45:33.488Z,-0.86
2022-12-18T15:48:00.173Z,-0.59
2022-12-18T15:50:29.303Z,-1.12
2022-12-18T15:52:57.085Z,-1.05
2022-12-18T15:55:43.269Z,-1.15
2022-12-18T15:58:10.772Z,-1.24
2022-12-18T16:00:38.801Z,-1.19
2022-12-18T16:03:05.610Z,-1.16
2022-12-18T16:05:33.022Z,-1.09
2022-12-18T16:07:59.442Z,-1.09
2022-12-18T16:10:26.317Z,-0.95
2022-12-18T16:12:53.085Z,-1.04
2022-12-18T16:15:24.272Z,-1.12
2022-12-18T16:17:51.538Z,-1.24
2022-12-18T16:20:19.925Z,-1.00
2022-12-18T16:22:46.947Z,-1.22
2022-12-18T16:25:23.957Z,-1.14
2022-12-18T16:27:50.844Z,-1.12
2022-12-18T16:30:19.938Z,-1.23
2022-12-18T16:32:46.713Z,-1.16
2022-12-18T16:35:14.339Z,-1.20
2022-12-18T16:37:41.214Z,-1.24
2022-12-18T16:40:09.752Z,-1.33
2022-12-18T16:42:37.165Z,-1.19
2022-12-18T16:45:04.257Z,-1.29
2022-12-18T16:47:30.670Z,-1.17
2022-12-18T16:49:57.029Z,-1.10
2022-12-18T16:52:23.403Z,-1.13
2022-12-18T16:54:49.774Z,-1.18
2022-12-18T16:57:18.222Z,-1.28
2022-12-18T16:59:44.766Z,-1.49
2022-12-18T17:02:15.786Z,-1.19
2022-12-18T17:04:43.989Z,-1.14
2022-12-18T17:07:10.876Z,-1.37
2022-12-18T17:09:37.742Z,-1.04
2022-12-18T17:12:04.807Z,-1.17
2022-12-18T17:14:32.078Z,-1.42
2022-12-18T17:17:20.213Z,-1.26
2022-12-18T17:19:46.365Z,-1.21
2022-12-18T17:22:12.751Z,-1.39
2022-12-18T17:24:39.207Z,-1.42
2022-12-18T17:27:05.790Z,-1.26
2022-12-18T17:29:32.191Z,-1.36
2022-12-18T17:31:58.735Z,-1.47
2022-12-18T17:34:27.130Z,-1.31
2022-12-18T17:36:53.560Z,-1.15
2022-12-18T17:39:20.712Z,-1.21
2022-12-18T17:41:47.508Z,-1.32
2022-12-18T17:44:13.964Z,-1.46
2022-12-18T17:46:42.769Z,-1.27
2022-12-18T17:49:10.136Z,-1.26
2022-12-18T17:51:36.575Z,-1.31
2022-12-18T17:54:03.010Z,-1.42
2022-12-18T17:56:29.639Z,-1.35
2022-12-18T17:58:56.033Z,-1.51
2022-12-18T18:01:23.849Z,-1.41
2022-12-18T18:03:51.552Z,-1.41
2022-12-18T18:06:20.299Z,-1.41
2022-12-18T18:08:46.695Z,-1.37
2022-12-18T18:11:33.437Z,-1.46
2022-12-18T18:14:02.989Z,-1.34
2022-12-18T18:16:32.426Z,-1.41
2022-12-18T18:19:01.616Z,-1.26
2022-12-18T18:21:28.547Z,-1.45
2022-12-18T18:23:55.406Z,-1.50
2022-12-18T18:26:22.195Z,-1.41
2022-12-18T18:28:53.726Z,-1.36
2022-12-18T18:31:20.859Z,-1.51
2022-12-18T18:33:50.176Z,-1.44
2022-12-18T18:36:16.636Z,-1.42
2022-12-18T18:38:48.076Z,-1.48
2022-12-18T18:41:15.094Z,-1.37
2022-12-18T18:43:42.368Z,-1.43
2022-12-18T18:46:11.235Z,-1.41
2022-12-18T18:48:37.752Z,-1.41
2022-12-18T18:51:05.773Z,-1.23
2022-12-18T18:53:36.176Z,-1.19
2022-12-18T18:56:45.390Z,-1.44
2022-12-18T18:58:50.254Z,-1.45
2022-12-18T19:01:17.883Z,-1.59
2022-12-18T19:03:45.303Z,-1.50
2022-12-18T19:06:14.039Z,-1.38
2022-12-18T19:08:40.920Z,-1.53
2022-12-18T19:11:31.734Z,-1.28
2022-12-18T19:14:01.449Z,-1.31
2022-12-18T19:16:28.376Z,-1.45
2022-12-18T19:19:00.004Z,-1.18
2022-12-18T19:21:28.415Z,-1.19
2022-12-18T19:23:57.578Z,-1.32
2022-12-18T19:26:28.002Z,-1.25
2022-12-18T19:29:00.126Z,-1.19
2022-12-18T19:31:31.803Z,-1.25
2022-12-18T19:34:01.698Z,-1.33
2022-12-18T19:36:28.737Z,-1.22
2022-12-18T19:38:56.794Z,-1.46
2022-12-18T19:41:24.392Z,-1.30
2022-12-18T19:43:52.504Z,-1.31
2022-12-18T19:46:20.715Z,-1.32
2022-12-18T19:48:47.810Z,-1.33
2022-12-18T19:51:18.858Z,-1.26
2022-12-18T19:53:45.715Z,-1.31
2022-12-18T19:56:14.086Z,-1.34
2022-12-18T19:58:41.260Z,-1.21
2022-12-18T20:01:08.050Z,-1.30
2022-12-18T20:03:36.387Z,-1.23
2022-12-18T20:06:12.286Z,-1.29
2022-12-18T20:08:39.038Z,-1.18
2022-12-18T20:11:05.884Z,-1.21
2022-12-18T20:13:32.506Z,-1.23
2022-12-18T20:15:59.227Z,-1.22
2022-12-18T20:18:25.865Z,-1.25
2022-12-18T20:20:52.307Z,-1.18
2022-12-18T20:23:19.375Z,-0.97
2022-12-18T20:25:45.909Z,-1.08
2022-12-18T20:28:12.333Z,-1.00
2022-12-18T20:30:38.726Z,-0.89
2022-12-18T20:33:05.162Z,-1.08
2022-12-18T20:35:32.100Z,-1.02
2022-12-18T20:37:59.196Z,-1.04
2022-12-18T20:40:27.388Z,-1.16
2022-12-18T20:42:53.773Z,-1.01
2022-12-18T20:45:20.262Z,-1.11
2022-12-18T20:47:46.655Z,-1.12
2022-12-18T20:50:13.049Z,-1.01
2022-12-18T20:52:39.462Z,-1.05
2022-12-18T20:55:06.520Z,-0.92
2022-12-18T20:57:33.042Z,-1.06
2022-12-18T20:59:59.714Z,-1.08
2022-12-18T21:02:26.342Z,-1.00
2022-12-18T21:04:53.367Z,-0.96
2022-12-18T21:07:19.762Z,-0.97
2022-12-18T21:09:46.141Z,-1.03
2022-12-18T21:12:40.283Z,-0.96
2022-12-18T21:15:10.667Z,-0.96
2022-12-18T21:17:44.177Z,-0.88
2022-12-18T21:20:11.814Z,-0.98
2022-12-18T21:22:44.081Z,-0.97
2022-12-18T21:25:10.480Z,-0.93
2022-12-18T21:27:36.886Z,-0.90
2022-12-18T21:30:03.449Z,-0.98
2022-12-18T21:32:29.907Z,-0.81
2022-12-18T21:34:59.882Z,-0.85
2022-12-18T21:37:26.612Z,-0.99
2022-12-18T21:39:53.041Z,-0.85
2022-12-18T21:42:37.815Z,-0.84
2022-12-18T21:45:04.408Z,-0.92
2022-12-18T21:47:30.752Z,-0.91
2022-12-18T21:49:57.146Z,-0.86
2022-12-18T21:52:29.801Z,-0.94
2022-12-18T21:55:06.229Z,-0.64
2022-12-18T21:57:35.446Z,-0.86
2022-12-18T22:00:02.835Z,-0.83
2022-12-18T22:02:38.527Z,-0.78
2022-12-18T22:05:05.177Z,-0.86
2022-12-18T22:07:31.617Z,-0.85
2022-12-18T22:09:58.137Z,-0.84
2022-12-18T22:12:35.489Z,-0.78
2022-12-18T22:15:04.300Z,-0.73
2022-12-18T22:17:30.874Z,-0.80
2022-12-18T22:19:57.510Z,-0.77
2022-12-18T22:22:23.914Z,-0.71
2022-12-18T22:24:50.307Z,-0.74
2022-12-18T22:27:16.694Z,-0.81
2022-12-18T22:30:01.494Z,-0.78
2022-12-18T22:32:31.310Z,-0.76
2022-12-18T22:35:03.420Z,-0.83
2022-12-18T22:37:31.620Z,-0.82
2022-12-18T22:39:57.972Z,-0.78
2022-12-18T22:42:24.438Z,-0.71
2022-12-18T22:44:50.904Z,-0.74
2022-12-18T22:47:17.341Z,-0.64
2022-12-18T22:49:43.865Z,-0.63
2022-12-18T22:52:10.452Z,-0.64
2022-12-18T22:54:36.908Z,-0.41
2022-12-18T22:57:03.338Z,-0.55
2022-12-18T22:59:29.740Z,-0.56
2022-12-18T23:01:58.520Z,-0.71
2022-12-18T23:04:30.183Z,-0.61
2022-12-18T23:07:03.955Z,-0.61
2022-12-18T23:09:30.316Z,-0.61
2022-12-18T23:11:56.700Z,-0.51
2022-12-18T23:14:23.056Z,-0.56
2022-12-18T23:16:49.439Z,-0.61
2022-12-18T23:19:18.605Z,-0.58
2022-12-18T23:21:45.044Z,-0.48
2022-12-18T23:24:11.448Z,-0.47
2022-12-18T23:26:37.918Z,-0.48
2022-12-18T23:29:04.567Z,-0.52
2022-12-18T23:31:33.702Z,-0.53
2022-12-18T23:34:01.238Z,-0.49
2022-12-18T23:36:27.714Z,-0.45
2022-12-18T23:38:57.263Z,-0.40
2022-12-18T23:41:24.900Z,-0.42
2022-12-18T23:43:51.809Z,-0.43
2022-12-18T23:46:28.819Z,-0.43
2022-12-18T23:48:57.035Z,-0.46
2022-12-18T23:51:25.222Z,-0.42
2022-12-18T23:53:52.250Z,-0.43
2022-12-18T23:56:19.097Z,-0.38
2022-12-18T23:58:45.505Z,-0.39
